Bucktail, Nebraska
Current Conditions -  °F | °C
As of 5:55 PM on Friday 28 Nov 2014 (Local Time) from KOGA Reporting Station
Clear Clear  
Wind Chill: 33°   Ceiling: Unl
Heat Index: 39°   Visibility: 10mi
Dew Point: 28°   Wind: 8mph
Humidity: 66%   Direction: 240°WSW
Pressure: 29.73"   Gusts: NA
Location:  41.2105°N, 101.376°W
Report Text: KOGA 290055Z AUTO 24007KT 10SM CLR 04/M02 A2973 RMK AO2 T00381021
Loading
Personal Weather Stations






























Interactive Weather Map New forecast layout! Learn more

10-Day Weather Forecast

Advertisements
Track Severe Weather on mobile